createdAt,value
2022-08-03T00:00:34.622Z,3.43
2022-08-03T00:03:02.803Z,4.10
2022-08-03T00:05:33.040Z,3.97
2022-08-03T00:08:01.391Z,3.60
2022-08-03T00:10:30.192Z,3.67
2022-08-03T00:12:59.756Z,3.87
2022-08-03T00:15:27.939Z,3.97
2022-08-03T00:17:56.101Z,4.03
2022-08-03T00:20:24.738Z,4.10
2022-08-03T00:22:52.991Z,3.67
2022-08-03T00:25:21.261Z,3.43
2022-08-03T00:27:50.404Z,3.50
2022-08-03T00:30:20.471Z,4.37
2022-08-03T00:32:48.645Z,3.87
2022-08-03T00:35:35.132Z,3.77
2022-08-03T00:38:05.817Z,4.40
2022-08-03T00:40:34.419Z,4.30
2022-08-03T00:43:03.762Z,4.40
2022-08-03T00:45:35.171Z,5.87
2022-08-03T00:48:03.878Z,4.30
2022-08-03T00:50:35.797Z,4.60
2022-08-03T00:53:06.605Z,4.27
2022-08-03T00:55:36.713Z,3.90
2022-08-03T00:58:06.625Z,4.80
2022-08-03T01:00:38.898Z,3.33
2022-08-03T01:03:07.939Z,3.77
2022-08-03T01:05:46.444Z,4.47
2022-08-03T01:08:21.693Z,3.50
2022-08-03T01:10:59.950Z,5.00
2022-08-03T01:13:59.891Z,4.03
2022-08-03T01:16:35.934Z,4.70
2022-08-03T01:19:23.649Z,3.80
2022-08-03T01:22:07.400Z,4.63
2022-08-03T01:24:45.552Z,4.13
2022-08-03T01:27:19.809Z,4.40
2022-08-03T01:30:00.928Z,4.27
2022-08-03T01:32:58.464Z,3.77
2022-08-03T01:35:30.408Z,4.40
2022-08-03T01:38:03.681Z,4.13
2022-08-03T01:40:34.788Z,4.10
2022-08-03T01:43:05.709Z,4.00
2022-08-03T01:45:37.641Z,3.70
2022-08-03T01:48:07.865Z,4.10
2022-08-03T01:50:36.581Z,4.00
2022-08-03T01:53:05.512Z,4.23
2022-08-03T01:55:35.597Z,4.20
2022-08-03T01:58:06.797Z,4.23
2022-08-03T02:00:37.897Z,4.10
2022-08-03T02:03:07.574Z,4.97
2022-08-03T02:05:36.841Z,3.67
2022-08-03T02:08:08.416Z,3.67
2022-08-03T02:10:38.704Z,4.10
2022-08-03T02:13:09.304Z,4.50
2022-08-03T02:15:40.066Z,4.47
2022-08-03T02:18:10.471Z,3.77
2022-08-03T02:20:41.463Z,3.90
2022-08-03T02:23:10.164Z,3.73
2022-08-03T02:25:44.232Z,3.80
2022-08-03T02:28:18.594Z,3.90
2022-08-03T02:30:54.837Z,3.60
2022-08-03T02:33:28.617Z,3.97
2022-08-03T02:35:58.812Z,4.30
2022-08-03T02:38:30.396Z,3.90
2022-08-03T02:41:01.091Z,4.67
2022-08-03T02:43:39.255Z,3.77
2022-08-03T02:46:26.741Z,4.53
2022-08-03T02:48:57.216Z,3.93
2022-08-03T02:51:27.720Z,3.90
2022-08-03T02:53:57.572Z,4.63
2022-08-03T02:56:26.493Z,4.53
2022-08-03T02:58:55.866Z,4.50
2022-08-03T03:01:28.170Z,4.20
2022-08-03T03:03:58.560Z,4.53
2022-08-03T03:06:29.299Z,4.00
2022-08-03T03:08:59.838Z,4.70
2022-08-03T03:11:28.495Z,3.97
2022-08-03T03:13:58.408Z,4.27
2022-08-03T03:16:30.997Z,4.07
2022-08-03T03:19:00.710Z,4.40
2022-08-03T03:21:30.810Z,4.67
2022-08-03T03:24:00.468Z,4.10
2022-08-03T03:26:28.973Z,4.03
2022-08-03T03:28:57.329Z,3.63
2022-08-03T03:31:25.531Z,4.27
2022-08-03T03:33:55.923Z,4.30
2022-08-03T03:36:24.019Z,4.60
2022-08-03T03:38:53.755Z,4.20
2022-08-03T03:41:22.108Z,4.20
2022-08-03T03:43:51.408Z,4.80
2022-08-03T03:46:19.969Z,4.70
2022-08-03T03:48:48.368Z,4.73
2022-08-03T03:51:18.059Z,4.70
2022-08-03T03:53:57.354Z,4.47
2022-08-03T03:56:26.175Z,4.00
2022-08-03T03:58:54.552Z,4.57
2022-08-03T04:01:23.130Z,4.50
2022-08-03T04:03:51.367Z,4.17
2022-08-03T04:06:38.622Z,4.43
2022-08-03T04:09:25.076Z,4.47
2022-08-03T04:11:54.699Z,4.53
2022-08-03T04:14:27.903Z,4.33
2022-08-03T04:16:59.853Z,3.90
2022-08-03T04:19:33.465Z,7.20
2022-08-03T04:22:06.923Z,4.50
2022-08-03T04:24:39.483Z,4.57
2022-08-03T04:27:10.538Z,3.70
2022-08-03T04:29:48.087Z,3.83
2022-08-03T04:32:18.186Z,4.53
2022-08-03T04:34:46.692Z,4.70
2022-08-03T04:37:24.153Z,4.83
2022-08-03T04:39:56.912Z,5.20
2022-08-03T04:42:26.883Z,4.80
2022-08-03T04:45:01.123Z,4.70
2022-08-03T04:47:32.003Z,4.80
2022-08-03T04:50:01.463Z,4.40
2022-08-03T04:52:31.407Z,4.60
2022-08-03T04:54:59.537Z,3.93
2022-08-03T04:57:27.676Z,5.67
2022-08-03T05:00:02.176Z,4.47
2022-08-03T05:02:32.489Z,4.53
2022-08-03T05:05:00.912Z,5.20
2022-08-03T05:07:35.843Z,4.93
2022-08-03T05:10:14.840Z,5.10
2022-08-03T05:12:44.067Z,4.27
2022-08-03T05:15:12.562Z,4.30
2022-08-03T05:17:41.079Z,4.60
2022-08-03T05:20:10.664Z,7.60
2022-08-03T05:22:40.148Z,4.50
2022-08-03T05:25:09.120Z,4.73
2022-08-03T05:27:37.192Z,5.53
2022-08-03T05:30:27.288Z,4.30
2022-08-03T05:32:54.648Z,4.50
2022-08-03T05:36:00.685Z,4.80
2022-08-03T05:38:14.877Z,4.70
2022-08-03T05:40:56.797Z,4.60
2022-08-03T05:43:25.467Z,5.10
2022-08-03T05:46:11.611Z,5.13
2022-08-03T05:48:41.406Z,4.20
2022-08-03T05:51:11.679Z,4.53
2022-08-03T05:53:41.973Z,5.10
2022-08-03T05:56:14.310Z,4.27
2022-08-03T05:58:44.726Z,4.37
2022-08-03T06:01:13.200Z,4.97
2022-08-03T06:03:41.770Z,3.83
2022-08-03T06:06:09.992Z,4.90
2022-08-03T06:08:38.305Z,4.73
2022-08-03T06:11:07.912Z,4.30
2022-08-03T06:13:36.529Z,5.07
2022-08-03T06:16:05.335Z,4.20
2022-08-03T06:18:33.566Z,4.40
2022-08-03T06:21:14.594Z,4.93
2022-08-03T06:23:54.875Z,4.50
2022-08-03T06:26:26.200Z,5.30
2022-08-03T06:28:55.145Z,4.30
2022-08-03T06:31:32.442Z,4.90
2022-08-03T06:34:34.015Z,5.30
2022-08-03T06:36:58.454Z,4.37
2022-08-03T06:39:30.263Z,4.90
2022-08-03T06:41:59.731Z,4.90
2022-08-03T06:44:27.986Z,4.87
2022-08-03T06:46:56.434Z,4.87
2022-08-03T06:49:24.600Z,4.90
2022-08-03T06:52:06.062Z,4.40
2022-08-03T06:54:36.779Z,3.93
2022-08-03T06:57:08.324Z,4.90
2022-08-03T07:00:08.953Z,4.50
2022-08-03T07:02:24.707Z,4.37
2022-08-03T07:04:56.574Z,4.47
2022-08-03T07:07:24.787Z,4.73
2022-08-03T07:09:57.336Z,4.27
2022-08-03T07:12:28.917Z,4.00
2022-08-03T07:15:02.935Z,4.77
2022-08-03T07:17:33.084Z,3.97
2022-08-03T07:20:01.888Z,4.30
2022-08-03T07:22:30.002Z,4.67
2022-08-03T07:24:58.608Z,3.50
2022-08-03T07:27:29.267Z,6.90
2022-08-03T07:29:58.748Z,4.27
2022-08-03T07:32:27.129Z,3.70
2022-08-03T07:35:00.163Z,4.40
2022-08-03T07:37:29.682Z,5.27
2022-08-03T07:39:58.050Z,4.67
2022-08-03T07:42:28.047Z,5.27
2022-08-03T07:44:56.192Z,4.30
2022-08-03T07:47:34.887Z,5.60
2022-08-03T07:50:05.594Z,4.83
2022-08-03T07:52:52.107Z,4.93
2022-08-03T07:55:21.358Z,5.27
2022-08-03T07:58:01.535Z,4.40
2022-08-03T08:00:29.809Z,4.90
2022-08-03T08:02:58.044Z,4.03
2022-08-03T08:05:26.508Z,5.33
2022-08-03T08:07:54.773Z,4.00
2022-08-03T08:10:23.189Z,5.13
2022-08-03T08:12:52.843Z,4.70
2022-08-03T08:15:21.000Z,4.57
2022-08-03T08:17:50.985Z,5.10
2022-08-03T08:20:28.056Z,5.33
2022-08-03T08:22:58.331Z,5.73
2022-08-03T08:25:29.445Z,4.57
2022-08-03T08:28:29.098Z,5.73
2022-08-03T08:30:50.697Z,5.27
2022-08-03T08:33:23.131Z,4.03
2022-08-03T08:35:53.336Z,4.93
2022-08-03T08:38:21.646Z,4.20
2022-08-03T08:40:50.470Z,4.27
2022-08-03T08:43:20.147Z,5.67
2022-08-03T08:45:50.733Z,4.97
2022-08-03T08:48:24.383Z,3.80
2022-08-03T08:50:55.163Z,5.93
2022-08-03T08:53:27.300Z,4.33
2022-08-03T08:56:00.754Z,5.17
2022-08-03T08:58:35.979Z,4.93
2022-08-03T09:01:04.614Z,4.77
2022-08-03T09:03:34.599Z,3.87
2022-08-03T09:06:03.327Z,4.13
2022-08-03T09:08:32.924Z,4.00
2022-08-03T09:11:01.123Z,3.20
2022-08-03T09:13:30.554Z,4.70
2022-08-03T09:16:14.761Z,3.63
2022-08-03T09:18:43.946Z,3.80
2022-08-03T09:21:33.679Z,4.50
2022-08-03T09:24:05.770Z,3.13
2022-08-03T09:26:37.153Z,4.13
2022-08-03T09:29:13.490Z,3.70
2022-08-03T09:31:45.655Z,3.47
2022-08-03T09:34:16.068Z,3.40
2022-08-03T09:36:46.654Z,3.50
2022-08-03T09:39:16.706Z,3.07
2022-08-03T09:41:47.355Z,2.37
2022-08-03T09:44:24.340Z,3.50
2022-08-03T09:46:56.708Z,3.33
2022-08-03T09:49:25.523Z,2.90
2022-08-03T09:52:31.583Z,3.03
2022-08-03T09:54:43.154Z,3.00
2022-08-03T09:57:23.151Z,3.20
2022-08-03T10:00:01.903Z,2.90
2022-08-03T10:02:34.365Z,3.10
2022-08-03T10:05:02.537Z,2.90
2022-08-03T10:07:30.699Z,2.90
2022-08-03T10:10:28.942Z,3.80
2022-08-03T10:12:49.311Z,3.03
2022-08-03T10:16:23.117Z,3.33
2022-08-03T10:18:07.945Z,3.13
2022-08-03T10:20:50.264Z,2.77
2022-08-03T10:23:19.643Z,2.80
2022-08-03T10:25:50.856Z,2.90
2022-08-03T10:28:20.696Z,3.20
2022-08-03T10:30:51.297Z,2.50
2022-08-03T10:33:51.463Z,2.50
2022-08-03T10:36:12.112Z,2.67
2022-08-03T10:38:46.694Z,2.50
2022-08-03T10:41:15.069Z,3.00
2022-08-03T10:43:51.761Z,2.37
2022-08-03T10:46:22.339Z,2.20
2022-08-03T10:48:53.882Z,2.20
2022-08-03T10:51:22.701Z,2.20
2022-08-03T10:53:54.481Z,2.10
2022-08-03T10:57:05.629Z,2.30
2022-08-03T11:00:03.279Z,1.80
2022-08-03T11:03:06.172Z,2.50
2022-08-03T11:05:37.989Z,2.23
2022-08-03T11:08:25.961Z,4.00
2022-08-03T11:10:55.550Z,2.43
2022-08-03T11:13:25.239Z,2.07
2022-08-03T11:16:00.004Z,2.00
2022-08-03T11:18:31.096Z,2.07
2022-08-03T11:21:01.499Z,2.17
2022-08-03T11:24:03.172Z,2.20
2022-08-03T11:26:32.836Z,2.20
2022-08-03T11:29:29.062Z,1.80
2022-08-03T11:31:57.231Z,2.33
2022-08-03T11:34:25.666Z,2.20
2022-08-03T11:37:24.623Z,2.23
2022-08-03T11:39:57.070Z,2.23
2022-08-03T11:42:50.771Z,2.20
2022-08-03T11:45:19.919Z,1.80
2022-08-03T11:47:51.438Z,3.00
2022-08-03T11:50:21.508Z,1.70
2022-08-03T11:52:52.345Z,2.80
2022-08-03T11:55:22.726Z,1.67
2022-08-03T11:59:17.367Z,2.50
2022-08-03T12:00:40.567Z,2.13
2022-08-03T12:03:11.771Z,2.60
2022-08-03T12:05:51.373Z,2.40
2022-08-03T12:08:33.721Z,2.53
2022-08-03T12:11:05.735Z,2.13
2022-08-03T12:14:08.891Z,2.23
2022-08-03T12:16:30.076Z,2.10
2022-08-03T12:18:59.729Z,2.27
2022-08-03T12:21:28.166Z,2.20
2022-08-03T12:24:00.639Z,2.30
2022-08-03T12:26:29.829Z,3.23
2022-08-03T12:28:58.517Z,2.43
2022-08-03T12:31:26.967Z,2.43
2022-08-03T12:34:02.098Z,2.40
2022-08-03T12:36:32.142Z,1.83
2022-08-03T12:39:03.288Z,2.03
2022-08-03T12:41:34.135Z,2.30
2022-08-03T12:44:04.159Z,2.03
2022-08-03T12:46:34.328Z,2.00
2022-08-03T12:49:05.735Z,2.20
2022-08-03T12:51:35.743Z,1.93
2022-08-03T12:54:06.466Z,2.40
2022-08-03T12:56:34.716Z,1.97
2022-08-03T12:59:23.000Z,2.20
2022-08-03T13:01:55.264Z,2.90
2022-08-03T13:04:28.191Z,1.90
2022-08-03T13:07:03.429Z,2.20
2022-08-03T13:09:44.005Z,2.20
2022-08-03T13:12:13.615Z,2.07
2022-08-03T13:14:42.205Z,2.40
2022-08-03T13:17:10.599Z,2.63
2022-08-03T13:19:40.096Z,2.60
2022-08-03T13:22:18.544Z,2.80
2022-08-03T13:24:51.794Z,2.30
2022-08-03T13:28:01.781Z,2.57
2022-08-03T13:30:09.975Z,2.13
2022-08-03T13:32:38.127Z,2.70
2022-08-03T13:35:07.580Z,2.10
2022-08-03T13:37:35.817Z,2.30
2022-08-03T13:40:07.009Z,2.33
2022-08-03T13:42:36.776Z,3.43
2022-08-03T13:45:06.736Z,2.20
2022-08-03T13:47:34.903Z,3.67
2022-08-03T13:50:03.424Z,2.47
2022-08-03T13:52:33.493Z,2.83
2022-08-03T13:55:02.359Z,2.37
2022-08-03T13:58:05.099Z,2.13
2022-08-03T14:00:27.987Z,2.47
2022-08-03T14:03:12.535Z,2.37
2022-08-03T14:05:42.366Z,2.70
2022-08-03T14:08:11.497Z,2.17
2022-08-03T14:10:41.543Z,2.40
2022-08-03T14:13:16.757Z,2.17
2022-08-03T14:15:50.870Z,2.60
2022-08-03T14:18:28.943Z,2.30
2022-08-03T14:21:07.341Z,2.30
2022-08-03T14:23:36.188Z,2.20
2022-08-03T14:26:04.747Z,2.70
2022-08-03T14:28:34.757Z,2.10
2022-08-03T14:31:03.287Z,3.13
2022-08-03T14:33:31.645Z,2.60
2022-08-03T14:35:59.850Z,2.20
2022-08-03T14:38:28.137Z,2.27
2022-08-03T14:40:56.284Z,2.30
2022-08-03T14:43:24.781Z,2.03
2022-08-03T14:45:54.738Z,2.63
2022-08-03T14:50:34.226Z,2.10
2022-08-03T14:51:12.974Z,2.50
2022-08-03T14:53:41.705Z,2.10
2022-08-03T14:56:10.842Z,2.10
2022-08-03T14:58:39.836Z,2.93
2022-08-03T15:02:03.314Z,2.50
2022-08-03T15:03:57.549Z,2.90
2022-08-03T15:06:25.700Z,2.30
2022-08-03T15:09:21.096Z,1.80
2022-08-03T15:11:42.487Z,2.30
2022-08-03T15:14:10.667Z,2.20
2022-08-03T15:16:43.381Z,2.50
2022-08-03T15:20:00.723Z,2.33
2022-08-03T15:22:00.969Z,2.43
2022-08-03T15:24:29.421Z,2.57
2022-08-03T15:26:57.497Z,3.70
2022-08-03T15:30:07.451Z,2.30
2022-08-03T15:32:15.574Z,2.43
2022-08-03T15:34:50.447Z,2.77
2022-08-03T15:37:19.995Z,2.70
2022-08-03T15:39:58.865Z,2.10
2022-08-03T15:42:28.834Z,2.53
2022-08-03T15:44:58.473Z,2.20
2022-08-03T15:47:28.300Z,2.53
2022-08-03T15:49:56.500Z,2.40
2022-08-03T15:52:24.736Z,2.20
2022-08-03T15:54:52.987Z,2.50
2022-08-03T15:57:21.410Z,2.53
2022-08-03T15:59:49.892Z,2.00
2022-08-03T16:02:18.037Z,2.17
2022-08-03T16:04:47.641Z,2.40
2022-08-03T16:07:16.287Z,1.90
2022-08-03T16:09:44.530Z,2.20
2022-08-03T16:12:16.086Z,1.80
2022-08-03T16:14:52.564Z,1.93
2022-08-03T16:17:22.285Z,1.90
2022-08-03T16:19:55.111Z,2.60
2022-08-03T16:22:23.764Z,1.90
2022-08-03T16:24:52.698Z,1.80
2022-08-03T16:27:37.050Z,2.13
2022-08-03T16:30:07.535Z,2.20
2022-08-03T16:32:35.659Z,2.03
2022-08-03T16:35:06.285Z,2.70
2022-08-03T16:37:39.208Z,2.07
2022-08-03T16:40:17.664Z,2.80
2022-08-03T16:42:48.042Z,2.23
2022-08-03T16:45:16.345Z,1.67
2022-08-03T16:47:44.659Z,2.00
2022-08-03T16:50:19.528Z,2.23
2022-08-03T16:52:48.670Z,2.40
2022-08-03T16:55:43.628Z,1.83
2022-08-03T16:58:06.799Z,2.10
2022-08-03T17:00:41.602Z,2.20
2022-08-03T17:03:18.675Z,2.40
2022-08-03T17:05:51.107Z,2.00
2022-08-03T17:08:26.440Z,2.40
2022-08-03T17:10:55.668Z,2.40
2022-08-03T17:13:38.757Z,2.50
2022-08-03T17:16:10.290Z,2.47
2022-08-03T17:18:47.329Z,2.20
2022-08-03T17:21:18.458Z,1.90
2022-08-03T17:23:54.947Z,2.33
2022-08-03T17:26:30.517Z,2.13
2022-08-03T17:29:12.575Z,3.50
2022-08-03T17:31:48.467Z,2.10
2022-08-03T17:34:17.788Z,2.33
2022-08-03T17:37:05.779Z,2.27
2022-08-03T17:42:30.198Z,1.63
2022-08-03T17:45:02.403Z,2.10
2022-08-03T17:47:41.455Z,2.27
2022-08-03T17:50:24.086Z,2.50
2022-08-03T17:53:07.114Z,1.70
2022-08-03T17:55:56.671Z,2.17
2022-08-03T17:58:52.544Z,1.90
2022-08-03T18:04:34.060Z,2.30
2022-08-03T18:07:11.694Z,1.90
2022-08-03T18:10:06.441Z,2.50
2022-08-03T18:12:46.061Z,2.47
2022-08-03T18:15:25.989Z,2.27
2022-08-03T18:18:02.100Z,1.93
2022-08-03T18:20:40.915Z,2.00
2022-08-03T18:23:11.514Z,2.20
2022-08-03T18:25:59.151Z,3.27
2022-08-03T18:28:29.012Z,2.60
2022-08-03T18:30:58.717Z,3.07
2022-08-03T18:34:20.038Z,1.80
2022-08-03T18:36:22.132Z,2.10
2022-08-03T18:39:00.064Z,2.20
2022-08-03T18:41:32.200Z,1.87
2022-08-03T18:44:07.963Z,1.63
2022-08-03T18:46:50.235Z,1.53
2022-08-03T18:49:43.109Z,2.13
2022-08-03T18:52:17.875Z,1.60
2022-08-03T18:55:02.400Z,2.93
2022-08-03T18:57:43.150Z,2.10
2022-08-03T19:00:15.967Z,2.17
2022-08-03T19:02:50.419Z,2.20
2022-08-03T19:05:23.315Z,1.83
2022-08-03T19:08:17.633Z,1.87
2022-08-03T19:10:57.684Z,2.10
2022-08-03T19:13:36.418Z,2.27
2022-08-03T19:16:05.510Z,2.10
2022-08-03T19:18:38.838Z,2.27
2022-08-03T19:21:15.462Z,2.20
2022-08-03T19:23:46.265Z,2.73
2022-08-03T19:26:29.896Z,2.83
2022-08-03T19:29:00.817Z,2.43
2022-08-03T19:31:31.069Z,2.77
2022-08-03T19:34:04.532Z,2.50
2022-08-03T19:36:40.538Z,3.30
2022-08-03T19:39:12.660Z,2.30
2022-08-03T19:41:42.827Z,2.50
2022-08-03T19:44:19.969Z,2.67
2022-08-03T19:46:53.645Z,3.13
2022-08-03T19:49:59.910Z,2.37
2022-08-03T19:52:16.630Z,2.60
2022-08-03T19:54:54.608Z,3.20
2022-08-03T19:57:25.491Z,2.63
2022-08-03T19:59:58.153Z,2.80
2022-08-03T20:02:29.807Z,2.73
2022-08-03T20:05:00.106Z,2.10
2022-08-03T20:07:30.763Z,2.70
2022-08-03T20:09:59.616Z,2.20
2022-08-03T20:12:49.205Z,2.93
2022-08-03T20:18:07.505Z,2.20
2022-08-03T20:20:46.921Z,2.77
2022-08-03T20:23:18.912Z,2.93
2022-08-03T20:25:58.360Z,2.20
2022-08-03T20:28:31.938Z,2.40
2022-08-03T20:31:02.247Z,2.80
2022-08-03T20:33:46.537Z,3.47
2022-08-03T20:36:18.692Z,3.10
2022-08-03T20:38:48.149Z,3.30
2022-08-03T20:41:16.868Z,3.30
2022-08-03T20:43:45.220Z,3.23
2022-08-03T20:46:29.216Z,2.80
2022-08-03T20:48:59.591Z,3.30
2022-08-03T20:51:50.101Z,3.00
2022-08-03T20:54:22.750Z,2.73
2022-08-03T20:56:58.854Z,3.30
2022-08-03T20:59:38.516Z,3.03
2022-08-03T21:02:19.358Z,5.17
2022-08-03T21:04:48.350Z,3.20
2022-08-03T21:07:22.938Z,3.03
2022-08-03T21:09:55.336Z,3.73
2022-08-03T21:12:33.923Z,3.00
2022-08-03T21:12:56.256Z,2.40
2022-08-03T21:13:03.792Z,2.73
2022-08-03T21:15:05.324Z,3.23
2022-08-03T21:17:40.748Z,3.30
2022-08-03T21:20:11.534Z,2.90
2022-08-03T21:22:43.476Z,2.43
2022-08-03T21:25:15.089Z,2.90
2022-08-03T21:27:43.268Z,2.90
2022-08-03T21:30:12.681Z,2.50
2022-08-03T21:32:45.385Z,2.50
2022-08-03T21:35:15.463Z,2.70
2022-08-03T21:37:44.843Z,3.37
2022-08-03T21:40:14.296Z,2.77
2022-08-03T21:42:44.233Z,2.57
2022-08-03T21:45:17.312Z,2.43
2022-08-03T21:47:49.051Z,2.57
2022-08-03T21:50:17.919Z,2.63
2022-08-03T21:52:49.077Z,2.37
2022-08-03T21:55:20.658Z,2.73
2022-08-03T21:57:54.382Z,2.53
2022-08-03T22:00:24.077Z,2.50
2022-08-03T22:02:57.395Z,3.00
2022-08-03T22:05:42.549Z,2.70
2022-08-03T22:08:12.560Z,2.70
2022-08-03T22:10:41.249Z,2.50
2022-08-03T22:13:09.559Z,2.63
2022-08-03T22:15:37.707Z,2.67
2022-08-03T22:18:07.384Z,2.37
2022-08-03T22:20:35.600Z,2.23
2022-08-03T22:23:05.706Z,2.70
2022-08-03T22:25:35.509Z,2.60
2022-08-03T22:28:07.060Z,2.17
2022-08-03T22:30:35.713Z,3.23
2022-08-03T22:33:11.669Z,2.23
2022-08-03T22:35:47.718Z,2.87
2022-08-03T22:38:18.012Z,2.73
2022-08-03T22:40:49.858Z,3.23
2022-08-03T22:43:18.194Z,2.70
2022-08-03T22:46:09.655Z,3.20
2022-08-03T22:48:41.323Z,2.50
2022-08-03T22:51:10.327Z,3.30
2022-08-03T22:53:40.150Z,2.70
2022-08-03T22:56:08.784Z,3.00
2022-08-03T22:58:36.915Z,2.47
2022-08-03T23:01:07.590Z,3.13
2022-08-03T23:04:00.537Z,2.53
2022-08-03T23:06:28.421Z,2.73
2022-08-03T23:08:57.101Z,2.50
2022-08-03T23:11:26.386Z,2.80
2022-08-03T23:13:57.651Z,2.90
2022-08-03T23:16:28.737Z,2.73
2022-08-03T23:19:16.407Z,2.90
2022-08-03T23:21:53.676Z,2.57
2022-08-03T23:24:30.565Z,3.00
2022-08-03T23:26:59.121Z,2.87
2022-08-03T23:29:30.129Z,3.30
2022-08-03T23:31:59.615Z,4.23
2022-08-03T23:34:46.999Z,2.70
2022-08-03T23:37:15.962Z,2.93
2022-08-03T23:39:47.267Z,2.80
2022-08-03T23:42:19.310Z,3.60
2022-08-03T23:44:48.344Z,2.70
2022-08-03T23:47:16.460Z,2.70
2022-08-03T23:49:46.083Z,2.70
2022-08-03T23:52:22.173Z,3.27
2022-08-03T23:55:04.085Z,3.40
2022-08-03T23:57:42.799Z,2.70
